Time,TemperatureF,DewpointF,PressureIn,WindDirection,WindDirectionDegrees,WindSpeedMPH,WindSpeedGustMPH,Humidity,HourlyPrecipIn,Conditions,Clouds,dailyrainin,SoftwareType,DateUTC
2013-05-18 00:03:00,66.2,58.4,29.89,ESE,113,0.0,0.0,76,0.00,,,0.00,Wunderground v.1.15,2013-05-18 05:03:00,
2013-05-18 00:08:00,66.0,58.6,29.89,ESE,113,0.0,0.0,77,0.00,,,0.00,Wunderground v.1.15,2013-05-18 05:08:00,
2013-05-18 00:22:00,65.4,58.4,29.90,ESE,113,0.0,0.0,78,0.00,,,0.00,Wunderground v.1.15,2013-05-18 05:22:00,
2013-05-18 00:28:00,65.2,58.2,29.90,ESE,113,0.0,0.0,78,0.00,,,0.00,Wunderground v.1.15,2013-05-18 05:28:00,
2013-05-18 00:41:00,64.7,58.0,29.91,ESE,113,0.0,0.0,79,0.00,,,0.00,Wunderground v.1.15,2013-05-18 05:41:00,
2013-05-18 00:46:00,64.5,57.8,29.91,ESE,113,0.0,0.0,79,0.00,,,0.00,Wunderground v.1.15,2013-05-18 05:46:00,
2013-05-18 00:52:00,64.2,57.5,29.91,ESE,113,0.0,0.0,79,0.00,,,0.00,Wunderground v.1.15,2013-05-18 05:52:00,
2013-05-18 00:58:00,63.9,57.6,29.91,ESE,113,0.0,0.0,80,0.00,,,0.00,Wunderground v.1.15,2013-05-18 05:58:00,
2013-05-18 01:03:00,63.7,57.4,29.91,ESE,113,0.0,0.0,80,0.00,,,0.00,Wunderground v.1.15,2013-05-18 06:03:00,
2013-05-18 01:09:00,63.5,57.6,29.91,ESE,113,0.0,0.0,81,0.00,,,0.00,Wunderground v.1.15,2013-05-18 06:09:00,
2013-05-18 01:20:00,63.3,57.7,29.91,ESE,113,0.0,0.0,82,0.00,,,0.00,Wunderground v.1.15,2013-05-18 06:20:00,
2013-05-18 01:26:00,63.3,57.7,29.91,ESE,113,0.0,0.0,82,0.00,,,0.00,Wunderground v.1.15,2013-05-18 06:26:00,
2013-05-18 01:42:00,63.4,58.1,29.91,ESE,113,0.0,0.0,83,0.00,,,0.00,Wunderground v.1.15,2013-05-18 06:42:00,
2013-05-18 01:48:00,63.3,57.7,29.91,ESE,113,0.0,0.0,82,0.00,,,0.00,Wunderground v.1.15,2013-05-18 06:48:00,
2013-05-18 01:53:00,63.2,57.9,29.91,ESE,113,0.0,0.0,83,0.00,,,0.00,Wunderground v.1.15,2013-05-18 06:53:00,
2013-05-18 01:59:00,63.2,57.9,29.91,ESE,113,0.0,0.0,83,0.00,,,0.00,Wunderground v.1.15,2013-05-18 06:59:00,
2013-05-18 02:04:00,63.0,57.8,29.90,ESE,113,0.0,0.0,83,0.00,,,0.00,Wunderground v.1.15,2013-05-18 07:04:00,
2013-05-18 02:09:00,62.7,57.5,29.90,ESE,113,0.0,0.0,83,0.00,,,0.00,Wunderground v.1.15,2013-05-18 07:09:00,
2013-05-18 02:14:00,62.5,57.3,29.90,ESE,113,0.0,0.0,83,0.00,,,0.00,Wunderground v.1.15,2013-05-18 07:14:00,
2013-05-18 02:19:00,62.3,57.4,29.90,ESE,113,0.0,0.0,84,0.00,,,0.00,Wunderground v.1.15,2013-05-18 07:19:00,
2013-05-18 02:24:00,62.1,57.2,29.89,ESE,113,0.0,0.0,84,0.00,,,0.00,Wunderground v.1.15,2013-05-18 07:24:00,
2013-05-18 02:29:00,61.9,57.3,29.89,ESE,113,0.0,0.0,85,0.00,,,0.00,Wunderground v.1.15,2013-05-18 07:29:00,
2013-05-18 02:34:00,61.9,57.7,29.89,ESE,113,0.0,0.0,86,0.00,,,0.00,Wunderground v.1.15,2013-05-18 07:34:00,
2013-05-18 02:39:00,62.0,58.1,29.90,ESE,113,0.0,0.0,87,0.00,,,0.00,Wunderground v.1.15,2013-05-18 07:39:00,
2013-05-18 02:44:00,62.1,58.2,29.90,ESE,113,0.0,0.0,87,0.00,,,0.00,Wunderground v.1.15,2013-05-18 07:44:00,
2013-05-18 02:49:00,62.1,58.2,29.90,ESE,113,0.0,0.0,87,0.00,,,0.00,Wunderground v.1.15,2013-05-18 07:49:00,
2013-05-18 02:54:00,62.0,58.1,29.90,ESE,113,0.0,0.0,87,0.00,,,0.00,Wunderground v.1.15,2013-05-18 07:54:00,
2013-05-18 02:59:00,62.0,58.4,29.90,ESE,113,0.0,0.0,88,0.00,,,0.00,Wunderground v.1.15,2013-05-18 07:59:00,
2013-05-18 03:04:00,62.0,58.4,29.90,ESE,113,0.0,0.0,88,0.00,,,0.00,Wunderground v.1.15,2013-05-18 08:04:00,
2013-05-18 03:09:00,62.0,58.4,29.90,ESE,113,0.0,0.0,88,0.00,,,0.00,Wunderground v.1.15,2013-05-18 08:09:00,
2013-05-18 03:14:00,62.0,58.7,29.91,ESE,113,0.0,0.0,89,0.00,,,0.00,Wunderground v.1.15,2013-05-18 08:14:00,
2013-05-18 03:19:00,61.9,58.6,29.91,ESE,113,0.0,0.0,89,0.00,,,0.00,Wunderground v.1.15,2013-05-18 08:19:00,
2013-05-18 03:24:00,61.9,58.9,29.91,ESE,113,0.0,0.0,90,0.00,,,0.00,Wunderground v.1.15,2013-05-18 08:24:00,
2013-05-18 03:29:00,61.9,58.9,29.90,ESE,113,0.0,0.0,90,0.00,,,0.00,Wunderground v.1.15,2013-05-18 08:29:00,
2013-05-18 03:34:00,61.9,58.9,29.90,ESE,113,0.0,0.0,90,0.00,,,0.00,Wunderground v.1.15,2013-05-18 08:34:00,
2013-05-18 03:39:00,61.9,58.9,29.90,ESE,113,0.0,0.0,90,0.00,,,0.00,Wunderground v.1.15,2013-05-18 08:39:00,
2013-05-18 03:44:00,61.9,59.2,29.90,ESE,113,0.0,0.0,91,0.00,,,0.00,Wunderground v.1.15,2013-05-18 08:44:00,
2013-05-18 03:49:00,62.0,59.3,29.90,ESE,113,0.0,0.0,91,0.00,,,0.00,Wunderground v.1.15,2013-05-18 08:49:00,
2013-05-18 03:54:00,62.1,59.7,29.90,ESE,113,0.0,0.0,92,0.00,,,0.00,Wunderground v.1.15,2013-05-18 08:54:00,
2013-05-18 03:59:00,62.3,59.9,29.90,ESE,113,0.0,0.0,92,0.00,,,0.00,Wunderground v.1.15,2013-05-18 08:59:00,
2013-05-18 04:04:00,62.3,59.9,29.90,ESE,113,0.0,0.0,92,0.00,,,0.00,Wunderground v.1.15,2013-05-18 09:04:00,
2013-05-18 04:09:00,62.5,60.4,29.89,ESE,113,0.0,0.0,93,0.00,,,0.00,Wunderground v.1.15,2013-05-18 09:09:00,
2013-05-18 04:14:00,62.5,60.4,29.89,ESE,113,0.0,0.0,93,0.00,,,0.00,Wunderground v.1.15,2013-05-18 09:14:00,
2013-05-18 04:19:00,62.5,60.4,29.89,ESE,113,0.0,0.0,93,0.00,,,0.00,Wunderground v.1.15,2013-05-18 09:19:00,
2013-05-18 04:24:00,62.6,60.5,29.89,ESE,113,0.0,0.0,93,0.00,,,0.00,Wunderground v.1.15,2013-05-18 09:24:00,
2013-05-18 04:29:00,62.5,60.4,29.89,ESE,113,0.0,0.0,93,0.00,,,0.00,Wunderground v.1.15,2013-05-18 09:29:00,
2013-05-18 04:34:00,62.6,60.5,29.89,ESE,113,0.0,0.0,93,0.00,,,0.00,Wunderground v.1.15,2013-05-18 09:34:00,
2013-05-18 04:39:00,62.5,60.4,29.89,ESE,113,0.0,0.0,93,0.00,,,0.00,Wunderground v.1.15,2013-05-18 09:39:00,
2013-05-18 04:45:00,62.5,60.4,29.88,ESE,113,0.0,0.0,93,0.00,,,0.00,Wunderground v.1.15,2013-05-18 09:45:00,
2013-05-18 04:50:00,62.4,60.3,29.89,ESE,113,0.0,0.0,93,0.00,,,0.00,Wunderground v.1.15,2013-05-18 09:50:00,
2013-05-18 04:55:00,62.4,60.3,29.89,ESE,113,0.0,0.0,93,0.00,,,0.00,Wunderground v.1.15,2013-05-18 09:55:00,
2013-05-18 05:00:00,62.3,60.2,29.89,ESE,113,0.0,0.0,93,0.00,,,0.00,Wunderground v.1.15,2013-05-18 10:00:00,
2013-05-18 05:05:00,62.3,60.2,29.89,ESE,113,0.0,0.0,93,0.00,,,0.00,Wunderground v.1.15,2013-05-18 10:05:00,
2013-05-18 05:10:00,62.2,60.2,29.89,ESE,113,0.0,0.0,93,0.00,,,0.00,Wunderground v.1.15,2013-05-18 10:10:00,
2013-05-18 05:15:00,62.2,60.5,29.89,ESE,113,0.0,0.0,94,0.00,,,0.00,Wunderground v.1.15,2013-05-18 10:15:00,
2013-05-18 05:20:00,62.2,60.5,29.89,ESE,113,0.0,0.0,94,0.00,,,0.00,Wunderground v.1.15,2013-05-18 10:20:00,
2013-05-18 05:25:00,62.1,60.4,29.89,ESE,113,0.0,0.0,94,0.00,,,0.00,Wunderground v.1.15,2013-05-18 10:25:00,
2013-05-18 05:30:00,62.0,60.3,29.89,ESE,113,0.0,0.0,94,0.00,,,0.00,Wunderground v.1.15,2013-05-18 10:30:00,
2013-05-18 05:35:00,61.9,60.2,29.89,ESE,113,0.0,0.0,94,0.00,,,0.00,Wunderground v.1.15,2013-05-18 10:35:00,
2013-05-18 05:40:00,61.9,60.2,29.90,ESE,113,0.0,0.0,94,0.00,,,0.00,Wunderground v.1.15,2013-05-18 10:40:00,
2013-05-18 05:45:00,61.8,60.1,29.89,ESE,113,0.0,0.0,94,0.00,,,0.00,Wunderground v.1.15,2013-05-18 10:45:00,
2013-05-18 05:50:00,61.8,60.1,29.89,ESE,113,0.0,0.0,94,0.00,,,0.00,Wunderground v.1.15,2013-05-18 10:50:00,
2013-05-18 05:55:00,61.7,60.0,29.89,ESE,113,0.0,0.0,94,0.00,,,0.00,Wunderground v.1.15,2013-05-18 10:55:00,
2013-05-18 06:00:00,61.6,59.9,29.89,ESE,113,0.0,0.0,94,0.00,,,0.00,Wunderground v.1.15,2013-05-18 11:00:00,
2013-05-18 06:05:00,61.5,59.8,29.90,ESE,113,0.0,0.0,94,0.00,,,0.00,Wunderground v.1.15,2013-05-18 11:05:00,
2013-05-18 06:10:00,61.5,60.1,29.90,ESE,113,0.0,0.0,95,0.00,,,0.00,Wunderground v.1.15,2013-05-18 11:10:00,
2013-05-18 06:15:00,61.5,60.1,29.90,ESE,113,0.0,0.0,95,0.00,,,0.00,Wunderground v.1.15,2013-05-18 11:15:00,
2013-05-18 06:20:00,61.7,60.3,29.90,ESE,113,0.0,0.0,95,0.00,,,0.00,Wunderground v.1.15,2013-05-18 11:20:00,
2013-05-18 06:25:00,61.8,60.4,29.90,ESE,113,0.0,0.0,95,0.00,,,0.00,Wunderground v.1.15,2013-05-18 11:25:00,
2013-05-18 06:30:00,61.9,60.5,29.90,ESE,113,0.0,0.0,95,0.00,,,0.00,Wunderground v.1.15,2013-05-18 11:30:00,
2013-05-18 06:35:00,62.1,60.7,29.90,ESE,113,0.0,0.0,95,0.00,,,0.00,Wunderground v.1.15,2013-05-18 11:35:00,
2013-05-18 06:40:00,62.1,60.7,29.90,ESE,113,0.0,0.0,95,0.00,,,0.00,Wunderground v.1.15,2013-05-18 11:40:00,
2013-05-18 06:45:00,62.2,60.8,29.90,ESE,113,0.0,0.0,95,0.00,,,0.00,Wunderground v.1.15,2013-05-18 11:45:00,
2013-05-18 06:50:00,62.3,60.8,29.90,ESE,113,0.0,0.0,95,0.00,,,0.00,Wunderground v.1.15,2013-05-18 11:50:00,
2013-05-18 06:55:00,62.4,60.9,29.91,ESE,113,0.0,0.0,95,0.00,,,0.00,Wunderground v.1.15,2013-05-18 11:55:00,
2013-05-18 07:01:00,62.5,61.0,29.91,ESE,113,0.0,0.0,95,0.00,,,0.00,Wunderground v.1.15,2013-05-18 12:01:00,
2013-05-18 07:06:00,62.7,61.2,29.91,ESE,113,0.0,0.0,95,0.00,,,0.00,Wunderground v.1.15,2013-05-18 12:06:00,
2013-05-18 07:11:00,62.9,61.4,29.91,ESE,113,0.0,0.0,95,0.00,,,0.00,Wunderground v.1.15,2013-05-18 12:11:00,
2013-05-18 07:16:00,63.0,61.8,29.91,ESE,113,0.0,0.0,96,0.00,,,0.00,Wunderground v.1.15,2013-05-18 12:16:00,
2013-05-18 07:21:00,63.2,61.7,29.91,ESE,113,0.0,0.0,95,0.00,,,0.00,Wunderground v.1.15,2013-05-18 12:21:00,
2013-05-18 07:26:00,63.5,62.0,29.91,ESE,113,0.0,0.0,95,0.00,,,0.00,Wunderground v.1.15,2013-05-18 12:26:00,
2013-05-18 07:32:00,63.8,62.6,29.92,ESE,113,0.0,0.0,96,0.00,,,0.00,Wunderground v.1.15,2013-05-18 12:32:00,
2013-05-18 07:37:00,64.1,62.6,29.92,ESE,113,0.0,0.0,95,0.00,,,0.00,Wunderground v.1.15,2013-05-18 12:37:00,
2013-05-18 07:42:00,64.4,62.9,29.92,ESE,113,0.0,0.0,95,0.00,,,0.00,Wunderground v.1.15,2013-05-18 12:42:00,
2013-05-18 07:47:00,64.7,63.2,29.92,ESE,115,0.0,0.0,95,0.00,,,0.00,Wunderground v.1.15,2013-05-18 12:47:00,
2013-05-18 07:52:00,65.1,63.6,29.92,SE,138,0.0,0.0,95,0.00,,,0.00,Wunderground v.1.15,2013-05-18 12:52:00,
2013-05-18 07:57:00,65.6,64.1,29.92,SSE,161,0.0,0.0,95,0.00,,,0.00,Wunderground v.1.15,2013-05-18 12:57:00,
2013-05-18 08:02:00,66.0,64.2,29.92,SSE,158,0.0,0.0,94,0.00,,,0.00,Wunderground v.1.15,2013-05-18 13:02:00,
2013-05-18 08:08:00,66.3,64.5,29.92,SE,146,0.0,0.0,94,0.00,,,0.00,Wunderground v.1.15,2013-05-18 13:08:00,
2013-05-18 08:13:00,66.5,64.4,29.92,SSE,148,0.0,0.0,93,0.00,,,0.00,Wunderground v.1.15,2013-05-18 13:13:00,
2013-05-18 08:18:00,67.2,65.1,29.92,SSE,151,0.0,0.0,93,0.00,,,0.00,Wunderground v.1.15,2013-05-18 13:18:00,
2013-05-18 08:23:00,67.7,65.3,29.93,SSE,155,0.0,0.0,92,0.00,,,0.00,Wunderground v.1.15,2013-05-18 13:23:00,
2013-05-18 08:28:00,68.1,65.4,29.93,SSE,148,0.0,0.0,91,0.00,,,0.00,Wunderground v.1.15,2013-05-18 13:28:00,
2013-05-18 08:33:00,68.5,65.8,29.93,SSE,155,0.0,0.0,91,0.00,,,0.00,Wunderground v.1.15,2013-05-18 13:33:00,
2013-05-18 08:38:00,69.0,65.9,29.92,SSE,158,0.0,0.0,90,0.00,,,0.00,Wunderground v.1.15,2013-05-18 13:38:00,
2013-05-18 08:43:00,69.5,66.1,29.92,SSE,147,0.0,0.0,89,0.00,,,0.00,Wunderground v.1.15,2013-05-18 13:43:00,
2013-05-18 08:48:00,69.8,66.1,29.92,South,169,0.0,0.0,88,0.00,,,0.00,Wunderground v.1.15,2013-05-18 13:48:00,
2013-05-18 08:53:00,70.2,66.1,29.92,SSE,155,0.0,0.0,87,0.00,,,0.00,Wunderground v.1.15,2013-05-18 13:53:00,
2013-05-18 08:58:00,70.4,66.3,29.92,SE,146,0.0,0.0,87,0.00,,,0.00,Wunderground v.1.15,2013-05-18 13:58:00,
2013-05-18 09:03:00,70.7,66.3,29.92,SSE,152,0.0,0.0,86,0.00,,,0.00,Wunderground v.1.15,2013-05-18 14:03:00,
2013-05-18 09:08:00,71.0,66.6,29.92,SE,142,0.0,0.0,86,0.00,,,0.00,Wunderground v.1.15,2013-05-18 14:08:00,
2013-05-18 09:13:00,71.4,66.7,29.92,SSE,147,0.0,0.0,85,0.00,,,0.00,Wunderground v.1.15,2013-05-18 14:13:00,
2013-05-18 09:18:00,71.7,66.6,29.92,SSE,151,0.0,0.0,84,0.00,,,0.00,Wunderground v.1.15,2013-05-18 14:18:00,
2013-05-18 09:23:00,72.0,66.9,29.92,SSE,152,0.0,0.0,84,0.00,,,0.00,Wunderground v.1.15,2013-05-18 14:23:00,
2013-05-18 09:28:00,72.4,67.3,29.92,SSE,159,0.0,0.0,84,0.00,,,0.00,Wunderground v.1.15,2013-05-18 14:28:00,
2013-05-18 09:33:00,72.6,67.1,29.92,South,180,0.0,0.0,83,0.00,,,0.00,Wunderground v.1.15,2013-05-18 14:33:00,
2013-05-18 09:38:00,72.9,67.1,29.92,SSE,153,0.0,0.0,82,0.00,,,0.00,Wunderground v.1.15,2013-05-18 14:38:00,
2013-05-18 09:43:00,73.4,67.2,29.92,SSE,152,0.0,0.0,81,0.00,,,0.00,Wunderground v.1.15,2013-05-18 14:43:00,
2013-05-18 09:48:00,73.4,67.2,29.92,SSE,164,0.0,0.0,81,0.00,,,0.00,Wunderground v.1.15,2013-05-18 14:48:00,
2013-05-18 09:53:00,73.7,67.1,29.92,SE,132,0.0,0.0,80,0.00,,,0.00,Wunderground v.1.15,2013-05-18 14:53:00,
2013-05-18 09:58:00,74.0,67.1,29.92,South,172,0.0,0.0,79,0.00,,,0.00,Wunderground v.1.15,2013-05-18 14:58:00,
2013-05-18 10:03:00,74.1,67.2,29.92,South,174,0.0,0.0,79,0.00,,,0.00,Wunderground v.1.15,2013-05-18 15:03:00,
2013-05-18 10:08:00,74.4,67.1,29.91,South,171,0.0,0.0,78,0.00,,,0.00,Wunderground v.1.15,2013-05-18 15:08:00,
2013-05-18 10:13:00,74.7,67.4,29.91,SSE,159,0.0,0.0,78,0.00,,,0.00,Wunderground v.1.15,2013-05-18 15:13:00,
2013-05-18 10:18:00,75.1,66.6,29.91,SSE,163,0.0,0.0,75,0.00,,,0.00,Wunderground v.1.15,2013-05-18 15:18:00,
2013-05-18 10:23:00,75.0,66.9,29.91,SSE,158,0.0,0.0,76,0.00,,,0.00,Wunderground v.1.15,2013-05-18 15:23:00,
2013-05-18 10:28:00,75.1,67.0,29.91,SE,140,0.0,0.0,76,0.00,,,0.00,Wunderground v.1.15,2013-05-18 15:28:00,
2013-05-18 10:33:00,75.2,66.7,29.91,SSE,158,0.0,0.0,75,0.00,,,0.00,Wunderground v.1.15,2013-05-18 15:33:00,
2013-05-18 10:38:00,75.3,66.4,29.91,SSE,150,0.0,0.0,74,0.00,,,0.00,Wunderground v.1.15,2013-05-18 15:38:00,
2013-05-18 10:43:00,75.4,66.9,29.91,SE,142,0.0,0.0,75,0.00,,,0.00,Wunderground v.1.15,2013-05-18 15:43:00,
2013-05-18 10:48:00,75.8,67.3,29.91,SE,143,0.0,0.0,75,0.00,,,0.00,Wunderground v.1.15,2013-05-18 15:48:00,
2013-05-18 10:53:00,76.3,67.4,29.91,SSE,154,0.0,0.0,74,0.00,,,0.00,Wunderground v.1.15,2013-05-18 15:53:00,
2013-05-18 10:58:00,76.8,66.7,29.91,SE,142,0.0,0.0,71,0.00,,,0.00,Wunderground v.1.15,2013-05-18 15:58:00,
2013-05-18 11:03:00,77.0,66.9,29.91,SSE,155,0.0,0.0,71,0.00,,,0.00,Wunderground v.1.15,2013-05-18 16:03:00,
2013-05-18 11:08:00,77.5,67.4,29.91,SSE,158,0.0,0.0,71,0.00,,,0.00,Wunderground v.1.15,2013-05-18 16:08:00,
2013-05-18 11:13:00,77.9,67.3,29.91,SE,139,0.0,0.0,70,0.00,,,0.00,Wunderground v.1.15,2013-05-18 16:13:00,
2013-05-18 11:18:00,77.8,66.4,29.91,South,184,0.0,0.0,68,0.00,,,0.00,Wunderground v.1.15,2013-05-18 16:18:00,
2013-05-18 11:23:00,77.8,66.8,29.90,SSE,152,0.0,0.0,69,0.00,,,0.00,Wunderground v.1.15,2013-05-18 16:23:00,
2013-05-18 11:28:00,78.1,67.1,29.90,SE,145,0.0,0.0,69,0.00,,,0.00,Wunderground v.1.15,2013-05-18 16:28:00,
2013-05-18 11:33:00,78.4,66.5,29.90,ESE,107,0.0,0.0,67,0.00,,,0.00,Wunderground v.1.15,2013-05-18 16:33:00,
2013-05-18 11:38:00,78.2,66.3,29.90,SSE,150,0.0,0.0,67,0.00,,,0.00,Wunderground v.1.15,2013-05-18 16:38:00,
2013-05-18 11:43:00,78.5,67.5,29.90,SSE,159,0.0,0.0,69,0.00,,,0.00,Wunderground v.1.15,2013-05-18 16:43:00,
2013-05-18 11:48:00,78.6,65.8,29.89,SE,135,0.0,0.0,65,0.00,,,0.00,Wunderground v.1.15,2013-05-18 16:48:00,
2013-05-18 11:53:00,79.0,66.7,29.89,SE,134,0.0,0.0,66,0.00,,,0.00,Wunderground v.1.15,2013-05-18 16:53:00,
2013-05-18 11:58:00,79.2,66.9,29.89,SSE,160,0.0,0.0,66,0.00,,,0.00,Wunderground v.1.15,2013-05-18 16:58:00,
2013-05-18 12:03:00,79.7,66.0,29.88,SSE,150,0.0,0.0,63,0.00,,,0.00,Wunderground v.1.15,2013-05-18 17:03:00,
2013-05-18 12:08:00,79.9,66.2,29.88,SE,127,0.0,0.0,63,0.00,,,0.00,Wunderground v.1.15,2013-05-18 17:08:00,
2013-05-18 12:13:00,79.8,66.5,29.88,SSE,161,0.0,0.0,64,0.00,,,0.00,Wunderground v.1.15,2013-05-18 17:13:00,
2013-05-18 12:18:00,79.7,66.0,29.88,SSE,156,0.0,0.0,63,0.00,,,0.00,Wunderground v.1.15,2013-05-18 17:18:00,
2013-05-18 12:23:00,79.8,67.4,29.88,SE,131,0.0,0.0,66,0.00,,,0.00,Wunderground v.1.15,2013-05-18 17:23:00,
2013-05-18 12:28:00,80.2,67.8,29.88,SSE,148,0.0,0.0,66,0.00,,,0.00,Wunderground v.1.15,2013-05-18 17:28:00,
2013-05-18 12:33:00,80.0,66.7,29.88,SE,144,0.0,0.0,64,0.00,,,0.00,Wunderground v.1.15,2013-05-18 17:33:00,
2013-05-18 12:38:00,79.8,67.4,29.88,SSE,165,0.0,0.0,66,0.00,,,0.00,Wunderground v.1.15,2013-05-18 17:38:00,
2013-05-18 12:43:00,79.4,66.6,29.87,SE,142,0.0,0.0,65,0.00,,,0.00,Wunderground v.1.15,2013-05-18 17:43:00,
2013-05-18 12:48:00,79.5,67.6,29.87,ESE,121,0.0,0.0,67,0.00,,,0.00,Wunderground v.1.15,2013-05-18 17:48:00,
2013-05-18 12:53:00,80.1,67.3,29.87,SE,141,0.0,0.0,65,0.00,,,0.00,Wunderground v.1.15,2013-05-18 17:53:00,
2013-05-18 12:58:00,80.3,67.5,29.87,South,175,0.0,0.0,65,0.00,,,0.00,Wunderground v.1.15,2013-05-18 17:58:00,
2013-05-18 13:03:00,80.4,66.6,29.87,SE,144,0.0,0.0,63,0.00,,,0.00,Wunderground v.1.15,2013-05-18 18:03:00,
2013-05-18 13:08:00,80.3,67.0,29.87,SSE,159,0.0,0.0,64,0.00,,,0.00,Wunderground v.1.15,2013-05-18 18:08:00,
2013-05-18 13:13:00,80.4,67.6,29.87,SE,126,0.0,0.0,65,0.00,,,0.00,Wunderground v.1.15,2013-05-18 18:13:00,
2013-05-18 13:18:00,80.7,66.9,29.87,SSE,150,0.0,0.0,63,0.00,,,0.00,Wunderground v.1.15,2013-05-18 18:18:00,
2013-05-18 13:23:00,80.9,65.7,29.87,SSE,157,0.0,0.0,60,0.00,,,0.00,Wunderground v.1.15,2013-05-18 18:23:00,
2013-05-18 13:29:00,80.4,66.6,29.87,SE,131,0.0,0.0,63,0.00,,,0.00,Wunderground v.1.15,2013-05-18 18:29:00,
2013-05-18 13:34:00,80.7,66.0,29.87,South,174,0.0,0.0,61,0.00,,,0.00,Wunderground v.1.15,2013-05-18 18:34:00,
2013-05-18 13:39:00,80.8,66.1,29.86,SSE,161,0.0,0.0,61,0.00,,,0.00,Wunderground v.1.15,2013-05-18 18:39:00,
2013-05-18 13:44:00,80.7,65.5,29.86,SSE,159,0.0,0.0,60,0.00,,,0.00,Wunderground v.1.15,2013-05-18 18:44:00,
2013-05-18 13:49:00,80.6,66.8,29.86,SE,144,0.0,0.0,63,0.00,,,0.00,Wunderground v.1.15,2013-05-18 18:49:00,
2013-05-18 13:54:00,80.4,65.7,29.86,ESE,117,0.0,0.0,61,0.00,,,0.00,Wunderground v.1.15,2013-05-18 18:54:00,
2013-05-18 13:59:00,79.9,65.2,29.86,South,169,0.0,0.0,61,0.00,,,0.00,Wunderground v.1.15,2013-05-18 18:59:00,
2013-05-18 14:04:00,79.8,66.5,29.86,SE,141,0.0,0.0,64,0.00,,,0.00,Wunderground v.1.15,2013-05-18 19:04:00,
2013-05-18 14:09:00,80.1,66.4,29.85,SSE,147,0.0,0.0,63,0.00,,,0.00,Wunderground v.1.15,2013-05-18 19:09:00,
2013-05-18 14:14:00,80.5,67.6,29.85,SE,143,0.0,0.0,65,0.00,,,0.00,Wunderground v.1.15,2013-05-18 19:14:00,
2013-05-18 14:19:00,81.3,66.6,29.85,SE,138,0.0,0.0,61,0.00,,,0.00,Wunderground v.1.15,2013-05-18 19:19:00,
2013-05-18 14:24:00,81.5,66.8,29.85,SSE,165,0.0,0.0,61,0.00,,,0.00,Wunderground v.1.15,2013-05-18 19:24:00,
2013-05-18 14:29:00,81.8,67.0,29.85,South,183,0.0,0.0,61,0.00,,,0.00,Wunderground v.1.15,2013-05-18 19:29:00,
2013-05-18 14:34:00,82.4,67.1,29.85,SSE,161,0.0,0.0,60,0.00,,,0.00,Wunderground v.1.15,2013-05-18 19:34:00,
2013-05-18 14:39:00,82.1,65.9,29.85,SSE,161,0.0,0.0,58,0.00,,,0.00,Wunderground v.1.15,2013-05-18 19:39:00,
2013-05-18 14:44:00,81.5,64.8,29.84,South,180,0.0,0.0,57,0.00,,,0.00,Wunderground v.1.15,2013-05-18 19:44:00,
2013-05-18 14:49:00,81.5,67.2,29.84,SSE,150,0.0,0.0,62,0.00,,,0.00,Wunderground v.1.15,2013-05-18 19:49:00,
2013-05-18 14:54:00,81.8,66.6,29.84,SSE,161,0.0,0.0,60,0.00,,,0.00,Wunderground v.1.15,2013-05-18 19:54:00,
2013-05-18 14:59:00,82.8,67.5,29.84,SSE,153,0.0,0.0,60,0.00,,,0.00,Wunderground v.1.15,2013-05-18 19:59:00,
2013-05-18 15:04:00,83.1,67.3,29.84,SE,128,0.0,0.0,59,0.00,,,0.00,Wunderground v.1.15,2013-05-18 20:04:00,
2013-05-18 15:09:00,83.4,66.1,29.83,SSE,150,0.0,0.0,56,0.00,,,0.00,Wunderground v.1.15,2013-05-18 20:09:00,
2013-05-18 15:14:00,83.5,65.6,29.83,SSE,153,0.0,0.0,55,0.00,,,0.00,Wunderground v.1.15,2013-05-18 20:14:00,
2013-05-18 15:19:00,83.0,66.2,29.83,SSE,155,0.0,0.0,57,0.00,,,0.00,Wunderground v.1.15,2013-05-18 20:19:00,
2013-05-18 15:24:00,82.6,65.8,29.83,SSE,162,0.0,0.0,57,0.00,,,0.00,Wunderground v.1.15,2013-05-18 20:24:00,
2013-05-18 15:29:00,83.0,65.7,29.82,South,172,0.0,0.0,56,0.00,,,0.00,Wunderground v.1.15,2013-05-18 20:29:00,
2013-05-18 15:34:00,83.3,65.4,29.82,SE,142,0.0,0.0,55,0.00,,,0.00,Wunderground v.1.15,2013-05-18 20:34:00,
2013-05-18 15:39:00,83.1,65.8,29.82,South,175,0.0,0.0,56,0.00,,,0.00,Wunderground v.1.15,2013-05-18 20:39:00,
2013-05-18 15:44:00,83.7,65.8,29.82,South,175,0.0,0.0,55,0.00,,,0.00,Wunderground v.1.15,2013-05-18 20:44:00,
2013-05-18 15:49:00,84.3,66.4,29.82,SE,143,0.0,0.0,55,0.00,,,0.00,Wunderground v.1.15,2013-05-18 20:49:00,
2013-05-18 15:54:00,84.7,66.7,29.82,SSE,153,0.0,0.0,55,0.00,,,0.00,Wunderground v.1.15,2013-05-18 20:54:00,
2013-05-18 15:59:00,84.5,67.1,29.82,SSE,147,0.0,0.0,56,0.00,,,0.00,Wunderground v.1.15,2013-05-18 20:59:00,
2013-05-18 16:04:00,84.2,66.3,29.81,SE,144,0.0,0.0,55,0.00,,,0.00,Wunderground v.1.15,2013-05-18 21:04:00,
2013-05-18 16:09:00,84.0,65.6,29.81,SE,144,0.0,0.0,54,0.00,,,0.00,Wunderground v.1.15,2013-05-18 21:09:00,
2013-05-18 16:14:00,84.0,66.1,29.81,SSE,155,0.0,0.0,55,0.00,,,0.00,Wunderground v.1.15,2013-05-18 21:14:00,
2013-05-18 16:19:00,83.7,65.3,29.81,SE,140,0.0,0.0,54,0.00,,,0.00,Wunderground v.1.15,2013-05-18 21:19:00,
2013-05-18 16:24:00,83.4,66.6,29.81,SSE,165,0.0,0.0,57,0.00,,,0.00,Wunderground v.1.15,2013-05-18 21:24:00,
2013-05-18 16:29:00,83.5,65.6,29.81,SE,133,0.0,0.0,55,0.00,,,0.00,Wunderground v.1.15,2013-05-18 21:29:00,
2013-05-18 16:34:00,83.7,65.3,29.81,ESE,123,0.0,0.0,54,0.00,,,0.00,Wunderground v.1.15,2013-05-18 21:34:00,
2013-05-18 16:39:00,83.0,64.1,29.81,SE,142,0.0,0.0,53,0.00,,,0.00,Wunderground v.1.15,2013-05-18 21:39:00,
2013-05-18 16:44:00,82.9,66.1,29.81,ESE,122,0.0,0.0,57,0.00,,,0.00,Wunderground v.1.15,2013-05-18 21:44:00,
2013-05-18 16:49:00,83.3,65.4,29.80,ESE,122,0.0,0.0,55,0.00,,,0.00,Wunderground v.1.15,2013-05-18 21:49:00,
2013-05-18 16:54:00,83.3,65.4,29.80,SE,137,0.0,0.0,55,0.00,,,0.00,Wunderground v.1.15,2013-05-18 21:54:00,
2013-05-18 16:59:00,83.5,65.1,29.81,SSE,159,0.0,0.0,54,0.00,,,0.00,Wunderground v.1.15,2013-05-18 21:59:00,
2013-05-18 17:04:00,83.3,64.9,29.81,SSE,154,0.0,0.0,54,0.00,,,0.00,Wunderground v.1.15,2013-05-18 22:04:00,
2013-05-18 17:09:00,82.3,64.5,29.81,SE,140,0.0,0.0,55,0.00,,,0.00,Wunderground v.1.15,2013-05-18 22:09:00,
2013-05-18 17:14:00,82.3,64.5,29.81,SSE,155,0.0,0.0,55,0.00,,,0.00,Wunderground v.1.15,2013-05-18 22:14:00,
2013-05-18 17:19:00,82.7,64.4,29.80,SSE,157,0.0,0.0,54,0.00,,,0.00,Wunderground v.1.15,2013-05-18 22:19:00,
2013-05-18 17:24:00,82.5,64.2,29.80,SSE,150,0.0,0.0,54,0.00,,,0.00,Wunderground v.1.15,2013-05-18 22:24:00,
2013-05-18 17:29:00,82.5,65.2,29.80,SSE,155,0.0,0.0,56,0.00,,,0.00,Wunderground v.1.15,2013-05-18 22:29:00,
2013-05-18 17:34:00,83.1,65.8,29.80,SE,139,0.0,0.0,56,0.00,,,0.00,Wunderground v.1.15,2013-05-18 22:34:00,
2013-05-18 17:39:00,83.2,65.4,29.80,SSE,153,0.0,0.0,55,0.00,,,0.00,Wunderground v.1.15,2013-05-18 22:39:00,
2013-05-18 17:44:00,83.3,66.0,29.80,SE,140,0.0,0.0,56,0.00,,,0.00,Wunderground v.1.15,2013-05-18 22:44:00,
2013-05-18 17:49:00,83.3,66.0,29.80,SE,145,0.0,0.0,56,0.00,,,0.00,Wunderground v.1.15,2013-05-18 22:49:00,
2013-05-18 17:54:00,83.3,65.4,29.80,SSE,160,0.0,0.0,55,0.00,,,0.00,Wunderground v.1.15,2013-05-18 22:54:00,
2013-05-18 17:59:00,83.2,64.8,29.80,SSE,155,0.0,0.0,54,0.00,,,0.00,Wunderground v.1.15,2013-05-18 22:59:00,
2013-05-18 18:04:00,83.0,65.2,29.80,SE,144,0.0,0.0,55,0.00,,,0.00,Wunderground v.1.15,2013-05-18 23:04:00,
2013-05-18 18:09:00,82.7,64.9,29.80,SE,130,0.0,0.0,55,0.00,,,0.00,Wunderground v.1.15,2013-05-18 23:09:00,
2013-05-18 18:14:00,82.3,65.0,29.81,SSE,160,0.0,0.0,56,0.00,,,0.00,Wunderground v.1.15,2013-05-18 23:14:00,
2013-05-18 18:19:00,81.9,65.2,29.81,SSE,155,0.0,0.0,57,0.00,,,0.00,Wunderground v.1.15,2013-05-18 23:19:00,
2013-05-18 18:25:00,81.9,64.7,29.81,SE,136,0.0,0.0,56,0.00,,,0.00,Wunderground v.1.15,2013-05-18 23:25:00,
2013-05-18 18:30:00,82.0,64.8,29.81,SSE,161,0.0,0.0,56,0.00,,,0.00,Wunderground v.1.15,2013-05-18 23:30:00,
2013-05-18 18:35:00,81.8,64.6,29.81,SSE,166,0.0,0.0,56,0.00,,,0.00,Wunderground v.1.15,2013-05-18 23:35:00,
2013-05-18 18:40:00,81.4,64.2,29.80,SSE,155,0.0,0.0,56,0.00,,,0.00,Wunderground v.1.15,2013-05-18 23:40:00,
2013-05-18 18:45:00,80.9,63.2,29.81,SSE,157,0.0,0.0,55,0.00,,,0.00,Wunderground v.1.15,2013-05-18 23:45:00,
2013-05-18 18:50:00,80.3,63.7,29.81,SSE,153,0.0,0.0,57,0.00,,,0.00,Wunderground v.1.15,2013-05-18 23:50:00,
2013-05-18 18:55:00,80.0,63.9,29.80,SSE,157,0.0,0.0,58,0.00,,,0.00,Wunderground v.1.15,2013-05-18 23:55:00,
2013-05-18 19:00:00,79.7,64.1,29.80,SSE,154,0.0,0.0,59,0.00,,,0.00,Wunderground v.1.15,2013-05-19 00:00:00,
2013-05-18 19:05:00,79.6,64.0,29.81,SSE,149,0.0,0.0,59,0.00,,,0.00,Wunderground v.1.15,2013-05-19 00:05:00,
2013-05-18 19:10:00,79.5,63.9,29.81,SSE,152,0.0,0.0,59,0.00,,,0.00,Wunderground v.1.15,2013-05-19 00:10:00,
2013-05-18 19:15:00,79.6,64.5,29.81,SSE,150,0.0,0.0,60,0.00,,,0.00,Wunderground v.1.15,2013-05-19 00:15:00,
2013-05-18 19:20:00,79.5,63.9,29.81,SSE,151,0.0,0.0,59,0.00,,,0.00,Wunderground v.1.15,2013-05-19 00:20:00,
2013-05-18 19:25:00,79.4,64.3,29.81,SSE,159,0.0,0.0,60,0.00,,,0.00,Wunderground v.1.15,2013-05-19 00:25:00,
2013-05-18 19:30:00,79.1,64.0,29.81,SE,142,0.0,0.0,60,0.00,,,0.00,Wunderground v.1.15,2013-05-19 00:30:00,
2013-05-18 19:35:00,78.9,63.8,29.81,SE,132,0.0,0.0,60,0.00,,,0.00,Wunderground v.1.15,2013-05-19 00:35:00,
2013-05-18 19:40:00,78.9,63.8,29.81,SSE,155,0.0,0.0,60,0.00,,,0.00,Wunderground v.1.15,2013-05-19 00:40:00,
2013-05-18 19:45:00,78.7,64.1,29.81,SSE,167,0.0,0.0,61,0.00,,,0.00,Wunderground v.1.15,2013-05-19 00:45:00,
2013-05-18 19:50:00,78.4,64.3,29.81,SE,138,0.0,0.0,62,0.00,,,0.00,Wunderground v.1.15,2013-05-19 00:50:00,
2013-05-18 19:55:00,78.1,64.0,29.81,SSE,149,0.0,0.0,62,0.00,,,0.00,Wunderground v.1.15,2013-05-19 00:55:00,
2013-05-18 20:00:00,77.8,64.2,29.81,SSE,150,0.0,0.0,63,0.00,,,0.00,Wunderground v.1.15,2013-05-19 01:00:00,
2013-05-18 20:05:00,77.6,64.5,29.81,SSE,148,0.0,0.0,64,0.00,,,0.00,Wunderground v.1.15,2013-05-19 01:05:00,
2013-05-18 20:10:00,77.3,64.2,29.81,SSE,151,0.0,0.0,64,0.00,,,0.00,Wunderground v.1.15,2013-05-19 01:10:00,
2013-05-18 20:15:00,76.9,64.2,29.81,SSE,150,0.0,0.0,65,0.00,,,0.00,Wunderground v.1.15,2013-05-19 01:15:00,
2013-05-18 20:20:00,76.5,63.9,29.80,SSE,150,0.0,0.0,65,0.00,,,0.00,Wunderground v.1.15,2013-05-19 01:20:00,
2013-05-18 20:25:00,76.1,63.9,29.80,SSE,149,0.0,0.0,66,0.00,,,0.00,Wunderground v.1.15,2013-05-19 01:25:00,
2013-05-18 20:30:00,75.7,63.5,29.80,SSE,149,0.0,0.0,66,0.00,,,0.00,Wunderground v.1.15,2013-05-19 01:30:00,
2013-05-18 20:35:00,75.4,63.7,29.80,SSE,147,0.0,0.0,67,0.00,,,0.00,Wunderground v.1.15,2013-05-19 01:35:00,
2013-05-18 20:40:00,75.2,63.5,29.80,SE,144,0.0,0.0,67,0.00,,,0.00,Wunderground v.1.15,2013-05-19 01:40:00,
2013-05-18 20:45:00,75.0,63.7,29.80,SE,144,0.0,0.0,68,0.00,,,0.00,Wunderground v.1.15,2013-05-19 01:45:00,
2013-05-18 20:50:00,74.7,63.4,29.79,SE,146,0.0,0.0,68,0.00,,,0.00,Wunderground v.1.15,2013-05-19 01:50:00,
2013-05-18 20:55:00,74.5,63.2,29.79,SE,146,0.0,0.0,68,0.00,,,0.00,Wunderground v.1.15,2013-05-19 01:55:00,
2013-05-18 21:00:00,74.2,63.4,29.79,SE,145,0.0,0.0,69,0.00,,,0.00,Wunderground v.1.15,2013-05-19 02:00:00,
2013-05-18 21:05:00,74.0,63.2,29.79,SE,145,0.0,0.0,69,0.00,,,0.00,Wunderground v.1.15,2013-05-19 02:05:00,
2013-05-18 21:10:00,73.7,63.3,29.79,SE,145,0.0,0.0,70,0.00,,,0.00,Wunderground v.1.15,2013-05-19 02:10:00,
2013-05-18 21:15:00,73.3,63.3,29.79,SE,145,0.0,0.0,71,0.00,,,0.00,Wunderground v.1.15,2013-05-19 02:15:00,
2013-05-18 21:20:00,73.1,63.5,29.79,SE,145,0.0,0.0,72,0.00,,,0.00,Wunderground v.1.15,2013-05-19 02:20:00,
2013-05-18 21:25:00,72.9,63.7,29.79,SE,145,0.0,0.0,73,0.00,,,0.00,Wunderground v.1.15,2013-05-19 02:25:00,
2013-05-18 21:30:00,72.6,63.8,29.80,SE,145,0.0,0.0,74,0.00,,,0.00,Wunderground v.1.15,2013-05-19 02:30:00,
2013-05-18 21:35:00,72.4,63.6,29.80,SE,145,0.0,0.0,74,0.00,,,0.00,Wunderground v.1.15,2013-05-19 02:35:00,
2013-05-18 21:40:00,72.2,63.4,29.79,SE,146,0.0,0.0,74,0.00,,,0.00,Wunderground v.1.15,2013-05-19 02:40:00,
2013-05-18 21:45:00,72.1,63.4,29.79,SE,146,0.0,0.0,74,0.00,,,0.00,Wunderground v.1.15,2013-05-19 02:45:00,
2013-05-18 21:50:00,72.0,63.6,29.79,SE,146,0.0,0.0,75,0.00,,,0.00,Wunderground v.1.15,2013-05-19 02:50:00,
2013-05-18 21:55:00,71.9,63.5,29.79,SE,143,0.0,0.0,75,0.00,,,0.00,Wunderground v.1.15,2013-05-19 02:55:00,
2013-05-18 22:00:00,71.8,63.4,29.79,SE,143,0.0,0.0,75,0.00,,,0.00,Wunderground v.1.15,2013-05-19 03:00:00,
2013-05-18 22:05:00,71.8,63.8,29.79,SE,143,0.0,0.0,76,0.00,,,0.00,Wunderground v.1.15,2013-05-19 03:05:00,
2013-05-18 22:10:00,71.7,63.7,29.79,SE,143,0.0,0.0,76,0.00,,,0.00,Wunderground v.1.15,2013-05-19 03:10:00,
2013-05-18 22:15:00,71.7,63.7,29.78,SE,143,0.0,0.0,76,0.00,,,0.00,Wunderground v.1.15,2013-05-19 03:15:00,
2013-05-18 22:20:00,71.5,63.5,29.78,South,171,0.0,0.0,76,0.00,,,0.00,Wunderground v.1.15,2013-05-19 03:20:00,
2013-05-18 22:25:00,71.3,63.3,29.78,SSE,167,0.0,0.0,76,0.00,,,0.00,Wunderground v.1.15,2013-05-19 03:25:00,
2013-05-18 22:30:00,71.3,63.3,29.78,SSE,162,0.0,0.0,76,0.00,,,0.00,Wunderground v.1.15,2013-05-19 03:30:00,
2013-05-18 22:35:00,71.2,63.2,29.79,SSE,161,0.0,0.0,76,0.00,,,0.00,Wunderground v.1.15,2013-05-19 03:35:00,
2013-05-18 22:40:00,71.2,63.2,29.78,SE,133,0.0,0.0,76,0.00,,,0.00,Wunderground v.1.15,2013-05-19 03:40:00,
2013-05-18 22:45:00,71.1,63.1,29.78,SE,128,0.0,0.0,76,0.00,,,0.00,Wunderground v.1.15,2013-05-19 03:45:00,
2013-05-18 22:50:00,71.0,63.4,29.77,SE,144,0.0,0.0,77,0.00,,,0.00,Wunderground v.1.15,2013-05-19 03:50:00,
2013-05-18 22:55:00,70.9,63.3,29.77,SE,144,0.0,0.0,77,0.00,,,0.00,Wunderground v.1.15,2013-05-19 03:55:00,
2013-05-18 23:00:00,70.7,63.1,29.77,SE,144,0.0,0.0,77,0.00,,,0.00,Wunderground v.1.15,2013-05-19 04:00:00,
2013-05-18 23:02:00,70.6,63.0,29.77,SE,144,0.0,0.0,77,0.00,,,0.00,Wunderground v.1.15,2013-05-19 04:02:00,
2013-05-18 23:03:00,70.6,63.0,29.77,SE,144,0.0,0.0,77,0.00,,,0.00,Wunderground v.1.15,2013-05-19 04:03:00,
2013-05-18 23:04:00,70.5,62.9,29.77,SE,144,0.0,0.0,77,0.00,,,0.00,Wunderground v.1.15,2013-05-19 04:04:00,
2013-05-18 23:09:00,70.4,63.2,29.77,SE,136,0.0,0.0,78,0.00,,,0.00,Wunderground v.1.15,2013-05-19 04:09:00,
2013-05-18 23:14:00,70.3,63.1,29.77,SSE,150,0.0,0.0,78,0.00,,,0.00,Wunderground v.1.15,2013-05-19 04:14:00,
2013-05-18 23:19:00,70.2,63.0,29.77,SSE,148,0.0,0.0,78,0.00,,,0.00,Wunderground v.1.15,2013-05-19 04:19:00,
2013-05-18 23:24:00,70.2,63.0,29.76,SE,144,0.0,0.0,78,0.00,,,0.00,Wunderground v.1.15,2013-05-19 04:24:00,
2013-05-18 23:29:00,70.0,62.8,29.76,SE,136,0.0,0.0,78,0.00,,,0.00,Wunderground v.1.15,2013-05-19 04:29:00,
2013-05-18 23:34:00,69.9,62.7,29.77,SE,128,0.0,0.0,78,0.00,,,0.00,Wunderground v.1.15,2013-05-19 04:34:00,
2013-05-18 23:39:00,69.9,62.7,29.77,SE,130,0.0,0.0,78,0.00,,,0.00,Wunderground v.1.15,2013-05-19 04:39:00,
2013-05-18 23:44:00,69.9,62.7,29.76,SE,134,0.0,0.0,78,0.00,,,0.00,Wunderground v.1.15,2013-05-19 04:44:00,
2013-05-18 23:49:00,69.8,62.6,29.76,SE,133,0.0,0.0,78,0.00,,,0.00,Wunderground v.1.15,2013-05-19 04:49:00,
2013-05-18 23:54:00,69.7,62.5,29.76,East,101,0.0,0.0,78,0.00,,,0.00,Wunderground v.1.15,2013-05-19 04:54:00,